createdAt,value
2022-08-02T00:03:31.425Z,5.43
2022-08-02T00:08:35.949Z,6.90
2022-08-02T00:13:40.175Z,8.95
2022-08-02T00:18:43.032Z,9.50
2022-08-02T00:24:28.114Z,4.03
2022-08-02T00:29:09.910Z,11.80
2022-08-02T00:34:28.347Z,5.70
2022-08-02T00:39:35.781Z,6.53
2022-08-02T00:44:40.341Z,7.28
2022-08-02T00:49:43.108Z,14.30
2022-08-02T00:54:45.952Z,10.35
2022-08-02T00:59:50.589Z,6.88
2022-08-02T01:04:53.426Z,8.65
2022-08-02T01:09:56.183Z,9.77
2022-08-02T01:15:02.549Z,6.60
2022-08-02T01:20:13.030Z,6.20
2022-08-02T01:25:30.329Z,13.27
2022-08-02T01:30:36.126Z,6.20
2022-08-02T01:35:50.552Z,7.65
2022-08-02T01:40:55.851Z,8.13
2022-08-02T01:46:01.504Z,7.68
2022-08-02T01:51:06.031Z,6.40
2022-08-02T01:56:10.476Z,7.85
2022-08-02T02:01:18.849Z,7.40
2022-08-02T02:06:24.886Z,9.80
2022-08-02T02:12:09.653Z,10.95
2022-08-02T02:16:54.137Z,7.53
2022-08-02T02:21:58.700Z,4.78
2022-08-02T02:27:04.319Z,8.63
2022-08-02T02:32:09.327Z,6.30
2022-08-02T02:37:17.454Z,6.93
2022-08-02T02:42:23.395Z,8.38
2022-08-02T02:47:40.926Z,5.50
2022-08-02T02:52:45.286Z,13.20
2022-08-02T02:57:48.956Z,7.38
2022-08-02T03:02:53.170Z,6.38
2022-08-02T03:07:55.957Z,7.03
2022-08-02T03:12:59.645Z,5.75
2022-08-02T03:18:03.794Z,5.50
2022-08-02T03:23:06.550Z,6.57
2022-08-02T03:28:10.403Z,6.70
2022-08-02T03:33:14.873Z,6.35
2022-08-02T03:38:19.810Z,6.60
2022-08-02T03:43:25.127Z,10.68
2022-08-02T03:48:35.310Z,19.92
2022-08-02T03:53:38.671Z,8.07
2022-08-02T03:58:43.654Z,6.90
2022-08-02T04:03:51.251Z,6.80
2022-08-02T04:08:54.029Z,6.68
2022-08-02T04:13:57.155Z,18.25
2022-08-02T04:19:03.723Z,19.92
2022-08-02T04:24:08.365Z,13.63
2022-08-02T04:29:15.887Z,13.82
2022-08-02T04:34:20.494Z,37.25
2022-08-02T04:39:23.901Z,31.35
2022-08-02T04:44:26.872Z,10.05
2022-08-02T04:49:31.047Z,8.80
2022-08-02T04:54:33.867Z,8.82
2022-08-02T04:59:36.566Z,6.80
2022-08-02T05:04:40.685Z,8.38
2022-08-02T05:09:43.432Z,8.68
2022-08-02T05:14:46.126Z,10.48
2022-08-02T05:19:50.273Z,9.63
2022-08-02T05:24:53.018Z,13.90
2022-08-02T05:29:57.921Z,11.13
2022-08-02T05:35:03.295Z,13.85
2022-08-02T05:40:12.928Z,9.65
2022-08-02T05:45:16.108Z,22.23
2022-08-02T05:50:20.867Z,10.05
2022-08-02T05:55:28.925Z,10.77
2022-08-02T06:00:36.970Z,20.55
2022-08-02T06:05:47.758Z,16.95
2022-08-02T06:10:53.140Z,14.45
2022-08-02T06:15:59.388Z,15.88
2022-08-02T06:22:33.144Z,10.40
2022-08-02T06:26:29.572Z,14.68
2022-08-02T06:31:32.492Z,15.27
2022-08-02T06:36:46.963Z,17.65
2022-08-02T06:41:53.102Z,16.48
2022-08-02T06:47:13.482Z,10.93
2022-08-02T06:52:19.239Z,21.75
2022-08-02T06:57:22.628Z,10.65
2022-08-02T07:02:25.550Z,11.60
2022-08-02T07:07:33.481Z,16.67
2022-08-02T07:12:36.583Z,16.88
2022-08-02T07:17:39.432Z,10.43
2022-08-02T07:22:43.567Z,9.25
2022-08-02T07:27:46.451Z,13.32
2022-08-02T07:32:49.295Z,12.80
2022-08-02T07:38:01.983Z,14.85
2022-08-02T07:43:05.328Z,17.95
2022-08-02T07:48:08.543Z,16.80
2022-08-02T07:53:14.164Z,11.88
2022-08-02T07:58:17.088Z,3.95
2022-08-02T08:03:20.181Z,5.38
2022-08-02T08:08:25.460Z,10.50
2022-08-02T08:13:31.112Z,2.93
2022-08-02T08:18:34.723Z,2.53
2022-08-02T08:23:39.131Z,4.07
2022-08-02T08:28:41.925Z,5.07
2022-08-02T08:33:44.651Z,4.88
2022-08-02T08:38:50.151Z,1.67
2022-08-02T08:43:53.485Z,1.52
2022-08-02T08:49:01.266Z,3.42
2022-08-02T08:54:08.453Z,2.80
2022-08-02T08:59:11.656Z,5.78
2022-08-02T09:04:14.411Z,5.70
2022-08-02T09:09:19.160Z,2.38
2022-08-02T09:14:29.272Z,3.72
2022-08-02T09:19:33.375Z,4.20
2022-08-02T09:24:47.095Z,1.50
2022-08-02T09:30:12.497Z,4.55
2022-08-02T09:35:15.389Z,2.08
2022-08-02T09:40:36.197Z,2.03
2022-08-02T09:45:39.127Z,4.00
2022-08-02T09:50:42.718Z,1.58
2022-08-02T09:55:57.060Z,2.08
2022-08-02T10:01:01.090Z,2.88
2022-08-02T10:06:04.602Z,1.75
2022-08-02T10:11:08.871Z,1.45
2022-08-02T10:16:12.276Z,1.35
2022-08-02T10:21:19.540Z,1.52
2022-08-02T10:26:28.975Z,1.08
2022-08-02T10:31:37.976Z,2.92
2022-08-02T10:36:45.068Z,6.20
2022-08-02T10:41:51.518Z,3.20
2022-08-02T10:47:15.432Z,4.50
2022-08-02T10:52:20.373Z,4.25
2022-08-02T10:57:25.964Z,2.87
2022-08-02T11:02:38.112Z,2.28
2022-08-02T11:07:49.153Z,2.13
2022-08-02T11:13:06.045Z,7.40
2022-08-02T11:18:08.834Z,4.15
2022-08-02T11:23:45.191Z,5.20
2022-08-02T11:28:50.510Z,2.65
2022-08-02T11:33:54.299Z,2.58
2022-08-02T11:39:11.522Z,2.15
2022-08-02T11:44:14.315Z,2.00
2022-08-02T11:49:18.810Z,2.70
2022-08-02T11:54:29.179Z,1.98
2022-08-02T11:59:32.017Z,2.63
2022-08-02T12:04:35.393Z,2.15
2022-08-02T12:09:41.398Z,4.78
2022-08-02T12:14:44.957Z,2.17
2022-08-02T12:19:48.660Z,2.28
2022-08-02T12:24:54.568Z,2.50
2022-08-02T12:30:03.967Z,4.60
2022-08-02T12:35:11.026Z,1.27
2022-08-02T12:40:27.332Z,2.63
2022-08-02T12:45:41.152Z,3.38
2022-08-02T12:50:45.592Z,5.40
2022-08-02T12:55:59.295Z,1.25
2022-08-02T13:01:05.410Z,2.10
2022-08-02T13:06:32.349Z,2.88
2022-08-02T13:11:33.678Z,1.30
2022-08-02T13:21:40.878Z,3.53
2022-08-02T13:27:04.638Z,3.17
2022-08-02T13:32:11.792Z,2.55
2022-08-02T13:37:15.717Z,4.10
2022-08-02T13:42:19.961Z,2.30
2022-08-02T13:47:35.884Z,6.90
2022-08-02T13:52:39.297Z,1.88
2022-08-02T13:57:43.516Z,3.95
2022-08-02T14:02:56.485Z,5.60
2022-08-02T14:08:01.493Z,1.20
2022-08-02T14:13:05.880Z,5.45
2022-08-02T14:18:08.605Z,1.98
2022-08-02T14:23:11.538Z,1.20
2022-08-02T14:28:15.862Z,1.30
2022-08-02T14:38:21.750Z,11.38
2022-08-02T14:43:43.809Z,1.20
2022-08-02T14:48:48.737Z,9.38
2022-08-02T14:54:02.691Z,2.20
2022-08-02T14:59:08.659Z,1.50
2022-08-02T15:04:11.448Z,1.27
2022-08-02T15:09:14.411Z,2.92
2022-08-02T15:14:19.137Z,2.15
2022-08-02T15:19:28.725Z,1.80
2022-08-02T15:24:48.642Z,4.68
2022-08-02T15:30:00.033Z,3.33
2022-08-02T15:35:03.431Z,5.57
2022-08-02T15:40:07.243Z,3.47
2022-08-02T15:45:13.162Z,8.10
2022-08-02T15:50:18.270Z,2.60
2022-08-02T15:55:21.325Z,2.17
2022-08-02T16:05:28.365Z,10.30
2022-08-02T16:10:31.407Z,3.42
2022-08-02T16:15:35.519Z,1.70
2022-08-02T16:20:38.612Z,11.02
2022-08-02T16:25:42.106Z,15.45
2022-08-02T16:30:54.396Z,3.08
2022-08-02T16:36:07.745Z,9.57
2022-08-02T16:41:11.325Z,7.03
2022-08-02T16:46:15.517Z,6.97
2022-08-02T16:51:22.236Z,3.30
2022-08-02T16:56:25.012Z,5.88
2022-08-02T17:02:10.900Z,26.00
2022-08-02T17:06:52.794Z,2.33
2022-08-02T17:11:55.705Z,4.97
2022-08-02T17:16:59.816Z,5.18
2022-08-02T17:22:02.918Z,3.25
2022-08-02T17:27:05.883Z,13.25
2022-08-02T17:32:11.619Z,4.72
2022-08-02T17:37:14.587Z,2.70
2022-08-02T17:42:19.855Z,8.00
2022-08-02T17:47:30.756Z,9.93
2022-08-02T17:52:51.812Z,3.78
2022-08-02T17:57:58.774Z,7.13
2022-08-02T18:08:10.534Z,4.65
2022-08-02T18:13:17.756Z,3.00
2022-08-02T18:18:29.274Z,3.83
2022-08-02T18:23:32.600Z,3.05
2022-08-02T18:28:40.848Z,11.38
2022-08-02T18:34:00.114Z,9.73
2022-08-02T18:39:08.189Z,3.17
2022-08-02T18:44:15.801Z,3.75
2022-08-02T18:49:21.219Z,11.52
2022-08-02T18:54:30.862Z,4.82
2022-08-02T18:59:37.671Z,6.47
2022-08-02T19:04:43.598Z,12.80
2022-08-02T19:09:49.716Z,7.43
2022-08-02T19:14:52.704Z,7.30
2022-08-02T19:19:56.929Z,12.27
2022-08-02T19:25:01.206Z,12.50
2022-08-02T19:35:31.408Z,12.13
2022-08-02T19:40:34.547Z,7.68
2022-08-02T19:45:48.964Z,11.50
2022-08-02T19:51:00.621Z,8.07
2022-08-02T19:56:04.697Z,9.73
2022-08-02T20:01:09.470Z,6.95
2022-08-02T20:06:29.432Z,7.47
2022-08-02T20:11:34.826Z,14.95
2022-08-02T20:16:38.253Z,11.68
2022-08-02T20:21:52.954Z,3.37
2022-08-02T20:27:11.426Z,6.95
2022-08-02T20:32:22.446Z,5.40
2022-08-02T20:37:56.044Z,4.45
2022-08-02T20:42:51.423Z,6.32
2022-08-02T20:47:58.474Z,6.50
2022-08-02T20:53:05.898Z,3.10
2022-08-02T20:58:11.687Z,15.68
2022-08-02T21:03:19.574Z,5.18
2022-08-02T21:08:48.342Z,9.20
2022-08-02T21:14:08.544Z,23.98
2022-08-02T21:19:12.302Z,36.70
2022-08-02T21:24:16.451Z,20.38
2022-08-02T21:29:19.920Z,16.50
2022-08-02T21:34:27.099Z,28.02
2022-08-02T21:39:32.265Z,30.23
2022-08-02T21:44:35.160Z,43.95
2022-08-02T21:50:09.359Z,33.05
2022-08-02T21:55:02.673Z,21.38
2022-08-02T22:00:10.844Z,22.35
2022-08-02T22:05:14.263Z,28.83
2022-08-02T22:10:18.728Z,19.20
2022-08-02T22:15:25.782Z,39.85
2022-08-02T22:25:45.304Z,21.88
2022-08-02T22:30:52.466Z,13.43
2022-08-02T22:35:56.044Z,16.25
2022-08-02T22:41:00.263Z,40.95
2022-08-02T22:46:03.534Z,19.65
2022-08-02T22:51:06.449Z,12.50
2022-08-02T22:56:11.398Z,15.65
2022-08-02T22:58:48.314Z,13.07
2022-08-02T23:01:14.527Z,18.42
2022-08-02T23:06:19.202Z,46.63
2022-08-02T23:11:26.955Z,27.55
2022-08-02T23:16:47.428Z,21.42
2022-08-02T23:22:01.503Z,20.83
2022-08-02T23:27:07.291Z,9.45
2022-08-02T23:32:10.174Z,25.60
2022-08-02T23:37:13.088Z,18.00
2022-08-02T23:42:17.431Z,19.92
2022-08-02T23:47:21.528Z,20.02
2022-08-02T23:52:24.882Z,15.90
2022-08-02T23:57:29.072Z,16.00
